sensor_id;sensor_type;location;lat;lon;timestamp;P1;durP1;ratioP1;P2;durP2;ratioP2
9467;SDS011;4772;52.382;9.752;2023-01-29T00:00:06;19.20;;;13.97;;
9467;SDS011;4772;52.382;9.752;2023-01-29T00:02:34;22.87;;;14.30;;
9467;SDS011;4772;52.382;9.752;2023-01-29T00:05:00;22.40;;;15.17;;
9467;SDS011;4772;52.382;9.752;2023-01-29T00:07:26;20.77;;;14.00;;
9467;SDS011;4772;52.382;9.752;2023-01-29T00:09:51;20.13;;;14.13;;
9467;SDS011;4772;52.382;9.752;2023-01-29T00:12:17;17.90;;;12.73;;
9467;SDS011;4772;52.382;9.752;2023-01-29T00:14:43;19.10;;;13.13;;
9467;SDS011;4772;52.382;9.752;2023-01-29T00:17:09;16.63;;;12.70;;
9467;SDS011;4772;52.382;9.752;2023-01-29T00:19:35;19.47;;;13.23;;
9467;SDS011;4772;52.382;9.752;2023-01-29T00:22:01;17.07;;;12.67;;
9467;SDS011;4772;52.382;9.752;2023-01-29T00:24:27;19.43;;;12.70;;
9467;SDS011;4772;52.382;9.752;2023-01-29T00:26:53;16.60;;;12.00;;
9467;SDS011;4772;52.382;9.752;2023-01-29T00:29:19;18.43;;;12.80;;
9467;SDS011;4772;52.382;9.752;2023-01-29T00:31:45;18.03;;;13.27;;
9467;SDS011;4772;52.382;9.752;2023-01-29T00:34:12;17.10;;;12.30;;
9467;SDS011;4772;52.382;9.752;2023-01-29T00:36:38;18.43;;;12.87;;
9467;SDS011;4772;52.382;9.752;2023-01-29T00:39:04;18.03;;;12.27;;
9467;SDS011;4772;52.382;9.752;2023-01-29T00:41:34;17.53;;;12.50;;
9467;SDS011;4772;52.382;9.752;2023-01-29T00:44:19;18.13;;;12.33;;
9467;SDS011;4772;52.382;9.752;2023-01-29T00:47:04;19.40;;;12.43;;
9467;SDS011;4772;52.382;9.752;2023-01-29T00:49:53;16.97;;;12.47;;
9467;SDS011;4772;52.382;9.752;2023-01-29T00:52:19;18.23;;;12.33;;
9467;SDS011;4772;52.382;9.752;2023-01-29T00:54:48;17.13;;;12.30;;
9467;SDS011;4772;52.382;9.752;2023-01-29T00:57:14;17.50;;;12.50;;
9467;SDS011;4772;52.382;9.752;2023-01-29T00:59:40;19.87;;;13.40;;
9467;SDS011;4772;52.382;9.752;2023-01-29T01:02:06;19.63;;;13.40;;
9467;SDS011;4772;52.382;9.752;2023-01-29T01:04:50;19.83;;;13.37;;
9467;SDS011;4772;52.382;9.752;2023-01-29T01:07:16;20.50;;;14.10;;
9467;SDS011;4772;52.382;9.752;2023-01-29T01:09:42;21.60;;;13.60;;
9467;SDS011;4772;52.382;9.752;2023-01-29T01:12:27;19.33;;;13.43;;
9467;SDS011;4772;52.382;9.752;2023-01-29T01:14:53;20.93;;;14.63;;
9467;SDS011;4772;52.382;9.752;2023-01-29T01:17:19;20.67;;;13.77;;
9467;SDS011;4772;52.382;9.752;2023-01-29T01:19:45;20.67;;;13.43;;
9467;SDS011;4772;52.382;9.752;2023-01-29T01:22:11;19.40;;;13.07;;
9467;SDS011;4772;52.382;9.752;2023-01-29T01:24:37;19.40;;;14.33;;
9467;SDS011;4772;52.382;9.752;2023-01-29T01:27:03;19.47;;;12.53;;
9467;SDS011;4772;52.382;9.752;2023-01-29T01:29:29;15.97;;;12.33;;
9467;SDS011;4772;52.382;9.752;2023-01-29T01:31:55;18.93;;;12.90;;
9467;SDS011;4772;52.382;9.752;2023-01-29T01:34:21;17.47;;;12.60;;
9467;SDS011;4772;52.382;9.752;2023-01-29T01:36:47;19.90;;;13.27;;
9467;SDS011;4772;52.382;9.752;2023-01-29T01:39:13;17.50;;;12.60;;
9467;SDS011;4772;52.382;9.752;2023-01-29T01:41:39;17.07;;;12.17;;
9467;SDS011;4772;52.382;9.752;2023-01-29T01:44:05;16.37;;;12.03;;
9467;SDS011;4772;52.382;9.752;2023-01-29T01:46:32;18.57;;;13.00;;
9467;SDS011;4772;52.382;9.752;2023-01-29T01:51:25;18.13;;;12.80;;
9467;SDS011;4772;52.382;9.752;2023-01-29T01:53:56;19.30;;;13.27;;
9467;SDS011;4772;52.382;9.752;2023-01-29T01:56:25;16.60;;;11.63;;
9467;SDS011;4772;52.382;9.752;2023-01-29T01:58:54;17.03;;;11.80;;
9467;SDS011;4772;52.382;9.752;2023-01-29T02:01:21;17.03;;;12.20;;
9467;SDS011;4772;52.382;9.752;2023-01-29T02:06:44;21.53;;;14.00;;
9467;SDS011;4772;52.382;9.752;2023-01-29T02:09:38;19.43;;;13.43;;
9467;SDS011;4772;52.382;9.752;2023-01-29T02:12:06;19.70;;;13.03;;
9467;SDS011;4772;52.382;9.752;2023-01-29T02:14:33;18.33;;;12.47;;
9467;SDS011;4772;52.382;9.752;2023-01-29T02:17:03;19.83;;;13.67;;
9467;SDS011;4772;52.382;9.752;2023-01-29T02:24:53;20.40;;;12.63;;
9467;SDS011;4772;52.382;9.752;2023-01-29T02:27:26;21.83;;;13.07;;
9467;SDS011;4772;52.382;9.752;2023-01-29T02:34:52;21.27;;;13.87;;
9467;SDS011;4772;52.382;9.752;2023-01-29T02:37:40;21.00;;;12.27;;
9467;SDS011;4772;52.382;9.752;2023-01-29T02:42:47;21.53;;;13.33;;
9467;SDS011;4772;52.382;9.752;2023-01-29T02:45:31;16.40;;;12.07;;
9467;SDS011;4772;52.382;9.752;2023-01-29T02:47:59;17.33;;;12.13;;
9467;SDS011;4772;52.382;9.752;2023-01-29T02:50:36;16.27;;;11.93;;
9467;SDS011;4772;52.382;9.752;2023-01-29T02:55:37;19.87;;;12.33;;
9467;SDS011;4772;52.382;9.752;2023-01-29T02:58:10;17.30;;;12.40;;
9467;SDS011;4772;52.382;9.752;2023-01-29T03:00:39;17.63;;;12.03;;
9467;SDS011;4772;52.382;9.752;2023-01-29T03:03:40;18.40;;;12.40;;
9467;SDS011;4772;52.382;9.752;2023-01-29T03:06:03;19.37;;;12.60;;
9467;SDS011;4772;52.382;9.752;2023-01-29T03:08:31;20.60;;;13.90;;
9467;SDS011;4772;52.382;9.752;2023-01-29T03:11:07;19.43;;;12.73;;
9467;SDS011;4772;52.382;9.752;2023-01-29T03:16:06;20.33;;;13.37;;
9467;SDS011;4772;52.382;9.752;2023-01-29T03:18:35;22.13;;;14.13;;
9467;SDS011;4772;52.382;9.752;2023-01-29T03:21:07;22.43;;;14.40;;
9467;SDS011;4772;52.382;9.752;2023-01-29T03:23:55;19.87;;;14.10;;
9467;SDS011;4772;52.382;9.752;2023-01-29T03:26:40;20.57;;;13.90;;
9467;SDS011;4772;52.382;9.752;2023-01-29T03:29:25;20.57;;;14.20;;
9467;SDS011;4772;52.382;9.752;2023-01-29T03:32:11;21.07;;;13.93;;
9467;SDS011;4772;52.382;9.752;2023-01-29T03:34:39;19.83;;;13.70;;
9467;SDS011;4772;52.382;9.752;2023-01-29T03:37:09;18.73;;;13.20;;
9467;SDS011;4772;52.382;9.752;2023-01-29T03:39:38;20.87;;;13.70;;
9467;SDS011;4772;52.382;9.752;2023-01-29T03:42:08;21.80;;;13.83;;
9467;SDS011;4772;52.382;9.752;2023-01-29T03:47:23;21.33;;;12.77;;
9467;SDS011;4772;52.382;9.752;2023-01-29T03:52:47;20.50;;;13.87;;
9467;SDS011;4772;52.382;9.752;2023-01-29T04:05:19;22.67;;;14.53;;
9467;SDS011;4772;52.382;9.752;2023-01-29T04:07:46;21.50;;;14.03;;
9467;SDS011;4772;52.382;9.752;2023-01-29T04:10:17;20.93;;;13.80;;
9467;SDS011;4772;52.382;9.752;2023-01-29T04:12:49;21.07;;;13.67;;
9467;SDS011;4772;52.382;9.752;2023-01-29T04:15:16;20.93;;;12.80;;
9467;SDS011;4772;52.382;9.752;2023-01-29T04:17:48;20.67;;;13.47;;
9467;SDS011;4772;52.382;9.752;2023-01-29T04:20:15;19.03;;;13.13;;
9467;SDS011;4772;52.382;9.752;2023-01-29T04:22:41;22.87;;;13.93;;
9467;SDS011;4772;52.382;9.752;2023-01-29T04:25:11;19.10;;;13.23;;
9467;SDS011;4772;52.382;9.752;2023-01-29T04:30:08;19.83;;;13.30;;
9467;SDS011;4772;52.382;9.752;2023-01-29T04:41:02;19.20;;;13.60;;
9467;SDS011;4772;52.382;9.752;2023-01-29T04:46:34;18.23;;;12.67;;
9467;SDS011;4772;52.382;9.752;2023-01-29T04:49:08;18.27;;;12.10;;
9467;SDS011;4772;52.382;9.752;2023-01-29T04:59:35;18.13;;;11.73;;
9467;SDS011;4772;52.382;9.752;2023-01-29T05:02:04;18.37;;;12.50;;
9467;SDS011;4772;52.382;9.752;2023-01-29T05:04:32;18.33;;;12.07;;
9467;SDS011;4772;52.382;9.752;2023-01-29T05:07:00;19.77;;;12.70;;
9467;SDS011;4772;52.382;9.752;2023-01-29T05:09:26;17.63;;;11.90;;
9467;SDS011;4772;52.382;9.752;2023-01-29T05:11:52;16.23;;;11.40;;
9467;SDS011;4772;52.382;9.752;2023-01-29T05:14:19;17.40;;;11.53;;
9467;SDS011;4772;52.382;9.752;2023-01-29T05:16:48;16.97;;;11.73;;
9467;SDS011;4772;52.382;9.752;2023-01-29T05:19:16;18.30;;;11.90;;
9467;SDS011;4772;52.382;9.752;2023-01-29T05:21:43;19.20;;;12.20;;
9467;SDS011;4772;52.382;9.752;2023-01-29T05:24:20;17.80;;;12.53;;
9467;SDS011;4772;52.382;9.752;2023-01-29T05:26:47;18.53;;;12.00;;
9467;SDS011;4772;52.382;9.752;2023-01-29T05:29:32;17.97;;;12.03;;
9467;SDS011;4772;52.382;9.752;2023-01-29T05:31:58;17.43;;;11.90;;
9467;SDS011;4772;52.382;9.752;2023-01-29T05:34:24;18.70;;;12.43;;
9467;SDS011;4772;52.382;9.752;2023-01-29T05:36:50;17.30;;;12.20;;
9467;SDS011;4772;52.382;9.752;2023-01-29T05:39:16;19.63;;;11.70;;
9467;SDS011;4772;52.382;9.752;2023-01-29T05:41:42;18.67;;;12.00;;
9467;SDS011;4772;52.382;9.752;2023-01-29T05:44:08;16.93;;;12.10;;
9467;SDS011;4772;52.382;9.752;2023-01-29T05:46:35;18.03;;;12.33;;
9467;SDS011;4772;52.382;9.752;2023-01-29T05:49:02;18.70;;;12.80;;
9467;SDS011;4772;52.382;9.752;2023-01-29T05:51:28;18.20;;;12.40;;
9467;SDS011;4772;52.382;9.752;2023-01-29T05:53:54;18.97;;;12.27;;
9467;SDS011;4772;52.382;9.752;2023-01-29T05:56:20;17.07;;;11.83;;
9467;SDS011;4772;52.382;9.752;2023-01-29T05:58:46;19.97;;;12.27;;
9467;SDS011;4772;52.382;9.752;2023-01-29T06:01:13;19.77;;;12.73;;
9467;SDS011;4772;52.382;9.752;2023-01-29T06:03:39;18.80;;;13.20;;
9467;SDS011;4772;52.382;9.752;2023-01-29T06:06:05;21.20;;;13.13;;
9467;SDS011;4772;52.382;9.752;2023-01-29T06:08:31;21.93;;;13.40;;
9467;SDS011;4772;52.382;9.752;2023-01-29T06:10:57;19.50;;;13.00;;
9467;SDS011;4772;52.382;9.752;2023-01-29T06:13:23;18.90;;;13.27;;
9467;SDS011;4772;52.382;9.752;2023-01-29T06:15:49;20.50;;;13.93;;
9467;SDS011;4772;52.382;9.752;2023-01-29T06:18:15;21.30;;;13.53;;
9467;SDS011;4772;52.382;9.752;2023-01-29T06:20:41;19.90;;;13.37;;
9467;SDS011;4772;52.382;9.752;2023-01-29T06:23:07;19.10;;;12.97;;
9467;SDS011;4772;52.382;9.752;2023-01-29T06:25:33;20.90;;;13.47;;
9467;SDS011;4772;52.382;9.752;2023-01-29T06:27:59;21.37;;;13.13;;
9467;SDS011;4772;52.382;9.752;2023-01-29T06:30:25;19.30;;;13.43;;
9467;SDS011;4772;52.382;9.752;2023-01-29T06:32:55;20.43;;;13.50;;
9467;SDS011;4772;52.382;9.752;2023-01-29T06:35:28;21.70;;;13.33;;
9467;SDS011;4772;52.382;9.752;2023-01-29T06:37:55;22.63;;;14.00;;
9467;SDS011;4772;52.382;9.752;2023-01-29T06:40:21;23.33;;;14.77;;
9467;SDS011;4772;52.382;9.752;2023-01-29T06:42:47;21.53;;;13.70;;
9467;SDS011;4772;52.382;9.752;2023-01-29T06:45:12;23.87;;;14.00;;
9467;SDS011;4772;52.382;9.752;2023-01-29T06:47:38;21.20;;;13.63;;
9467;SDS011;4772;52.382;9.752;2023-01-29T06:50:04;21.30;;;13.63;;
9467;SDS011;4772;52.382;9.752;2023-01-29T06:52:30;25.30;;;14.37;;
9467;SDS011;4772;52.382;9.752;2023-01-29T06:54:56;22.20;;;14.03;;
9467;SDS011;4772;52.382;9.752;2023-01-29T06:57:22;22.27;;;14.37;;
9467;SDS011;4772;52.382;9.752;2023-01-29T06:59:49;25.70;;;15.37;;
9467;SDS011;4772;52.382;9.752;2023-01-29T07:02:14;26.03;;;15.63;;
9467;SDS011;4772;52.382;9.752;2023-01-29T07:04:40;23.97;;;15.23;;
9467;SDS011;4772;52.382;9.752;2023-01-29T07:07:07;28.57;;;16.17;;
9467;SDS011;4772;52.382;9.752;2023-01-29T07:09:40;30.90;;;16.63;;
9467;SDS011;4772;52.382;9.752;2023-01-29T07:12:06;27.50;;;16.80;;
9467;SDS011;4772;52.382;9.752;2023-01-29T07:14:32;26.60;;;16.93;;
9467;SDS011;4772;52.382;9.752;2023-01-29T07:16:58;28.70;;;17.13;;
9467;SDS011;4772;52.382;9.752;2023-01-29T07:19:24;28.27;;;17.37;;
9467;SDS011;4772;52.382;9.752;2023-01-29T07:21:50;29.10;;;17.30;;
9467;SDS011;4772;52.382;9.752;2023-01-29T07:24:16;27.60;;;17.50;;
9467;SDS011;4772;52.382;9.752;2023-01-29T07:26:43;31.00;;;19.10;;
9467;SDS011;4772;52.382;9.752;2023-01-29T07:29:09;27.80;;;18.00;;
9467;SDS011;4772;52.382;9.752;2023-01-29T07:31:35;31.83;;;18.90;;
9467;SDS011;4772;52.382;9.752;2023-01-29T07:34:01;31.20;;;18.93;;
9467;SDS011;4772;52.382;9.752;2023-01-29T07:36:27;31.03;;;19.33;;
9467;SDS011;4772;52.382;9.752;2023-01-29T07:38:53;33.53;;;20.87;;
9467;SDS011;4772;52.382;9.752;2023-01-29T07:41:19;36.10;;;20.20;;
9467;SDS011;4772;52.382;9.752;2023-01-29T07:43:45;33.60;;;20.03;;
9467;SDS011;4772;52.382;9.752;2023-01-29T07:46:12;34.13;;;20.43;;
9467;SDS011;4772;52.382;9.752;2023-01-29T07:48:38;31.70;;;19.83;;
9467;SDS011;4772;52.382;9.752;2023-01-29T07:51:04;32.60;;;20.17;;
9467;SDS011;4772;52.382;9.752;2023-01-29T07:53:30;33.00;;;20.27;;
9467;SDS011;4772;52.382;9.752;2023-01-29T07:55:56;36.00;;;20.87;;
9467;SDS011;4772;52.382;9.752;2023-01-29T07:58:22;36.23;;;20.87;;
9467;SDS011;4772;52.382;9.752;2023-01-29T08:00:48;35.00;;;20.77;;
9467;SDS011;4772;52.382;9.752;2023-01-29T08:03:15;36.83;;;21.57;;
9467;SDS011;4772;52.382;9.752;2023-01-29T08:05:42;34.03;;;21.03;;
9467;SDS011;4772;52.382;9.752;2023-01-29T08:08:08;40.47;;;22.60;;
9467;SDS011;4772;52.382;9.752;2023-01-29T08:10:35;34.80;;;21.93;;
9467;SDS011;4772;52.382;9.752;2023-01-29T08:13:01;36.57;;;22.00;;
9467;SDS011;4772;52.382;9.752;2023-01-29T08:15:28;35.90;;;21.83;;
9467;SDS011;4772;52.382;9.752;2023-01-29T08:17:54;37.27;;;21.23;;
9467;SDS011;4772;52.382;9.752;2023-01-29T08:20:20;36.90;;;21.97;;
9467;SDS011;4772;52.382;9.752;2023-01-29T08:22:47;39.57;;;22.37;;
9467;SDS011;4772;52.382;9.752;2023-01-29T08:25:13;36.03;;;21.83;;
9467;SDS011;4772;52.382;9.752;2023-01-29T08:27:39;37.00;;;21.20;;
9467;SDS011;4772;52.382;9.752;2023-01-29T08:30:06;39.47;;;22.37;;
9467;SDS011;4772;52.382;9.752;2023-01-29T08:32:32;33.93;;;21.43;;
9467;SDS011;4772;52.382;9.752;2023-01-29T08:34:58;36.87;;;22.13;;
9467;SDS011;4772;52.382;9.752;2023-01-29T08:37:24;36.20;;;22.23;;
9467;SDS011;4772;52.382;9.752;2023-01-29T08:39:50;34.77;;;21.43;;
9467;SDS011;4772;52.382;9.752;2023-01-29T08:42:16;35.47;;;21.43;;
9467;SDS011;4772;52.382;9.752;2023-01-29T08:44:42;36.03;;;21.27;;
9467;SDS011;4772;52.382;9.752;2023-01-29T08:47:08;40.30;;;22.73;;
9467;SDS011;4772;52.382;9.752;2023-01-29T08:49:34;36.57;;;22.20;;
9467;SDS011;4772;52.382;9.752;2023-01-29T08:52:00;33.70;;;20.53;;
9467;SDS011;4772;52.382;9.752;2023-01-29T08:54:26;32.77;;;21.27;;
9467;SDS011;4772;52.382;9.752;2023-01-29T08:56:52;36.73;;;22.57;;
9467;SDS011;4772;52.382;9.752;2023-01-29T08:59:18;39.97;;;22.20;;
9467;SDS011;4772;52.382;9.752;2023-01-29T09:01:44;38.50;;;22.00;;
9467;SDS011;4772;52.382;9.752;2023-01-29T09:04:10;36.07;;;21.63;;
9467;SDS011;4772;52.382;9.752;2023-01-29T09:06:36;37.37;;;22.63;;
9467;SDS011;4772;52.382;9.752;2023-01-29T09:09:02;35.60;;;21.20;;
9467;SDS011;4772;52.382;9.752;2023-01-29T09:11:28;35.00;;;22.20;;
9467;SDS011;4772;52.382;9.752;2023-01-29T09:13:54;33.07;;;21.27;;
9467;SDS011;4772;52.382;9.752;2023-01-29T09:16:20;35.93;;;22.03;;
9467;SDS011;4772;52.382;9.752;2023-01-29T09:18:46;36.27;;;22.23;;
9467;SDS011;4772;52.382;9.752;2023-01-29T09:21:12;32.90;;;20.23;;
9467;SDS011;4772;52.382;9.752;2023-01-29T09:23:38;35.00;;;21.30;;
9467;SDS011;4772;52.382;9.752;2023-01-29T09:26:05;36.57;;;22.30;;
9467;SDS011;4772;52.382;9.752;2023-01-29T09:28:31;34.17;;;21.10;;
9467;SDS011;4772;52.382;9.752;2023-01-29T09:30:59;36.50;;;21.93;;
9467;SDS011;4772;52.382;9.752;2023-01-29T09:33:26;32.23;;;19.40;;
9467;SDS011;4772;52.382;9.752;2023-01-29T09:35:53;33.60;;;20.17;;
9467;SDS011;4772;52.382;9.752;2023-01-29T09:38:19;32.67;;;21.13;;
9467;SDS011;4772;52.382;9.752;2023-01-29T09:40:53;33.00;;;19.27;;
9467;SDS011;4772;52.382;9.752;2023-01-29T09:43:23;28.77;;;19.07;;
9467;SDS011;4772;52.382;9.752;2023-01-29T09:45:52;31.30;;;19.00;;
9467;SDS011;4772;52.382;9.752;2023-01-29T09:48:18;30.60;;;19.23;;
9467;SDS011;4772;52.382;9.752;2023-01-29T09:50:46;33.43;;;20.47;;
9467;SDS011;4772;52.382;9.752;2023-01-29T09:55:43;30.70;;;18.70;;
9467;SDS011;4772;52.382;9.752;2023-01-29T09:58:17;29.73;;;17.97;;
9467;SDS011;4772;52.382;9.752;2023-01-29T10:00:59;31.60;;;18.83;;
9467;SDS011;4772;52.382;9.752;2023-01-29T10:13:49;30.87;;;18.83;;
9467;SDS011;4772;52.382;9.752;2023-01-29T10:18:46;30.33;;;18.97;;
9467;SDS011;4772;52.382;9.752;2023-01-29T10:24:07;30.90;;;19.60;;
9467;SDS011;4772;52.382;9.752;2023-01-29T10:26:37;32.17;;;18.53;;
9467;SDS011;4772;52.382;9.752;2023-01-29T10:29:05;30.87;;;19.57;;
9467;SDS011;4772;52.382;9.752;2023-01-29T10:31:32;32.47;;;19.50;;
9467;SDS011;4772;52.382;9.752;2023-01-29T10:34:04;30.90;;;19.60;;
9467;SDS011;4772;52.382;9.752;2023-01-29T10:36:33;32.83;;;19.00;;
9467;SDS011;4772;52.382;9.752;2023-01-29T10:39:01;32.87;;;18.60;;
9467;SDS011;4772;52.382;9.752;2023-01-29T10:44:26;29.70;;;18.23;;
9467;SDS011;4772;52.382;9.752;2023-01-29T10:52:40;24.77;;;15.97;;
9467;SDS011;4772;52.382;9.752;2023-01-29T10:57:33;25.63;;;16.40;;
9467;SDS011;4772;52.382;9.752;2023-01-29T11:00:08;25.97;;;16.87;;
9467;SDS011;4772;52.382;9.752;2023-01-29T11:02:41;24.10;;;15.27;;
9467;SDS011;4772;52.382;9.752;2023-01-29T11:05:14;26.77;;;16.47;;
9467;SDS011;4772;52.382;9.752;2023-01-29T11:07:41;26.27;;;16.47;;
9467;SDS011;4772;52.382;9.752;2023-01-29T11:10:09;28.43;;;17.43;;
9467;SDS011;4772;52.382;9.752;2023-01-29T11:12:37;22.27;;;15.37;;
9467;SDS011;4772;52.382;9.752;2023-01-29T11:15:13;26.13;;;15.53;;
9467;SDS011;4772;52.382;9.752;2023-01-29T11:17:59;24.27;;;16.03;;
9467;SDS011;4772;52.382;9.752;2023-01-29T11:20:27;24.83;;;14.87;;
9467;SDS011;4772;52.382;9.752;2023-01-29T11:22:53;25.33;;;16.20;;
9467;SDS011;4772;52.382;9.752;2023-01-29T11:25:23;27.37;;;15.63;;
9467;SDS011;4772;52.382;9.752;2023-01-29T11:27:54;26.13;;;15.07;;
9467;SDS011;4772;52.382;9.752;2023-01-29T11:30:22;24.50;;;16.07;;
9467;SDS011;4772;52.382;9.752;2023-01-29T11:32:49;26.67;;;15.67;;
9467;SDS011;4772;52.382;9.752;2023-01-29T11:37:43;27.13;;;16.77;;
9467;SDS011;4772;52.382;9.752;2023-01-29T11:40:31;25.27;;;15.87;;
9467;SDS011;4772;52.382;9.752;2023-01-29T11:43:10;23.27;;;15.17;;
9467;SDS011;4772;52.382;9.752;2023-01-29T11:45:37;24.43;;;15.77;;
9467;SDS011;4772;52.382;9.752;2023-01-29T11:48:04;24.23;;;16.03;;
9467;SDS011;4772;52.382;9.752;2023-01-29T11:50:30;26.20;;;16.80;;
9467;SDS011;4772;52.382;9.752;2023-01-29T11:52:58;22.33;;;13.60;;
9467;SDS011;4772;52.382;9.752;2023-01-29T11:55:25;27.93;;;16.60;;
9467;SDS011;4772;52.382;9.752;2023-01-29T11:57:52;23.43;;;15.73;;
9467;SDS011;4772;52.382;9.752;2023-01-29T12:02:48;27.23;;;15.57;;
9467;SDS011;4772;52.382;9.752;2023-01-29T12:05:18;26.50;;;15.87;;
9467;SDS011;4772;52.382;9.752;2023-01-29T12:07:48;25.00;;;15.40;;
9467;SDS011;4772;52.382;9.752;2023-01-29T12:15:35;23.10;;;14.70;;
9467;SDS011;4772;52.382;9.752;2023-01-29T12:18:07;27.77;;;16.67;;
9467;SDS011;4772;52.382;9.752;2023-01-29T12:20:39;25.03;;;16.87;;
9467;SDS011;4772;52.382;9.752;2023-01-29T12:26:01;28.03;;;16.67;;
9467;SDS011;4772;52.382;9.752;2023-01-29T12:28:30;27.90;;;18.17;;
9467;SDS011;4772;52.382;9.752;2023-01-29T12:38:48;29.77;;;18.43;;
9467;SDS011;4772;52.382;9.752;2023-01-29T12:41:35;30.17;;;18.30;;
9467;SDS011;4772;52.382;9.752;2023-01-29T12:44:13;28.23;;;17.47;;
9467;SDS011;4772;52.382;9.752;2023-01-29T12:46:41;29.53;;;18.07;;
9467;SDS011;4772;52.382;9.752;2023-01-29T12:49:14;28.63;;;17.87;;
9467;SDS011;4772;52.382;9.752;2023-01-29T12:51:44;27.13;;;17.77;;
9467;SDS011;4772;52.382;9.752;2023-01-29T12:54:13;30.87;;;17.47;;
9467;SDS011;4772;52.382;9.752;2023-01-29T12:56:49;26.37;;;16.63;;
9467;SDS011;4772;52.382;9.752;2023-01-29T12:59:23;31.70;;;19.27;;
9467;SDS011;4772;52.382;9.752;2023-01-29T13:02:12;27.00;;;17.23;;
9467;SDS011;4772;52.382;9.752;2023-01-29T13:04:43;27.73;;;17.90;;
9467;SDS011;4772;52.382;9.752;2023-01-29T13:07:18;28.33;;;18.03;;
9467;SDS011;4772;52.382;9.752;2023-01-29T13:09:49;26.73;;;17.27;;
9467;SDS011;4772;52.382;9.752;2023-01-29T13:12:16;27.90;;;17.40;;
9467;SDS011;4772;52.382;9.752;2023-01-29T13:14:56;26.27;;;16.57;;
9467;SDS011;4772;52.382;9.752;2023-01-29T13:17:25;26.27;;;16.23;;
9467;SDS011;4772;52.382;9.752;2023-01-29T13:19:53;28.40;;;17.77;;
9467;SDS011;4772;52.382;9.752;2023-01-29T13:22:26;27.43;;;17.10;;
9467;SDS011;4772;52.382;9.752;2023-01-29T13:24:53;26.53;;;16.90;;
9467;SDS011;4772;52.382;9.752;2023-01-29T13:27:21;26.93;;;16.90;;
9467;SDS011;4772;52.382;9.752;2023-01-29T13:29:47;23.17;;;15.23;;
9467;SDS011;4772;52.382;9.752;2023-01-29T13:32:18;28.07;;;15.63;;
9467;SDS011;4772;52.382;9.752;2023-01-29T13:34:45;26.57;;;16.70;;
9467;SDS011;4772;52.382;9.752;2023-01-29T13:37:16;26.77;;;15.47;;
9467;SDS011;4772;52.382;9.752;2023-01-29T13:39:49;27.37;;;16.30;;
9467;SDS011;4772;52.382;9.752;2023-01-29T13:42:17;23.60;;;16.03;;
9467;SDS011;4772;52.382;9.752;2023-01-29T13:45:05;26.30;;;16.43;;
9467;SDS011;4772;52.382;9.752;2023-01-29T13:47:38;25.67;;;15.57;;
9467;SDS011;4772;52.382;9.752;2023-01-29T13:50:09;26.87;;;16.50;;
9467;SDS011;4772;52.382;9.752;2023-01-29T13:52:39;27.27;;;16.63;;
9467;SDS011;4772;52.382;9.752;2023-01-29T14:05:42;27.23;;;15.70;;
9467;SDS011;4772;52.382;9.752;2023-01-29T14:10:35;27.37;;;15.47;;
9467;SDS011;4772;52.382;9.752;2023-01-29T14:15:37;29.00;;;15.07;;
9467;SDS011;4772;52.382;9.752;2023-01-29T14:20:36;24.40;;;15.50;;
9467;SDS011;4772;52.382;9.752;2023-01-29T14:23:03;27.57;;;15.40;;
9467;SDS011;4772;52.382;9.752;2023-01-29T14:25:31;23.77;;;15.13;;
9467;SDS011;4772;52.382;9.752;2023-01-29T14:27:58;21.77;;;13.83;;
9467;SDS011;4772;52.382;9.752;2023-01-29T14:30:25;28.20;;;18.65;;
9467;SDS011;4772;52.382;9.752;2023-01-29T14:32:52;24.17;;;15.33;;
9467;SDS011;4772;52.382;9.752;2023-01-29T14:35:20;22.13;;;14.10;;
9467;SDS011;4772;52.382;9.752;2023-01-29T14:37:52;27.60;;;15.63;;
9467;SDS011;4772;52.382;9.752;2023-01-29T14:40:19;30.87;;;16.33;;
9467;SDS011;4772;52.382;9.752;2023-01-29T14:45:55;23.37;;;14.33;;
9467;SDS011;4772;52.382;9.752;2023-01-29T14:51:14;25.40;;;15.57;;
9467;SDS011;4772;52.382;9.752;2023-01-29T14:53:47;26.17;;;16.50;;
9467;SDS011;4772;52.382;9.752;2023-01-29T14:56:19;28.30;;;17.63;;
9467;SDS011;4772;52.382;9.752;2023-01-29T14:58:54;31.63;;;17.57;;
9467;SDS011;4772;52.382;9.752;2023-01-29T15:01:25;30.13;;;16.63;;
9467;SDS011;4772;52.382;9.752;2023-01-29T15:03:59;26.70;;;17.80;;
9467;SDS011;4772;52.382;9.752;2023-01-29T15:06:43;29.67;;;17.63;;
9467;SDS011;4772;52.382;9.752;2023-01-29T15:11:39;28.50;;;17.37;;
9467;SDS011;4772;52.382;9.752;2023-01-29T15:16:41;31.97;;;19.37;;
9467;SDS011;4772;52.382;9.752;2023-01-29T15:19:25;37.10;;;20.17;;
9467;SDS011;4772;52.382;9.752;2023-01-29T15:24:32;35.03;;;22.23;;
9467;SDS011;4772;52.382;9.752;2023-01-29T15:26:58;35.67;;;20.33;;
9467;SDS011;4772;52.382;9.752;2023-01-29T15:29:25;34.37;;;19.57;;
9467;SDS011;4772;52.382;9.752;2023-01-29T15:31:52;35.40;;;20.30;;
9467;SDS011;4772;52.382;9.752;2023-01-29T15:34:18;34.53;;;21.37;;
9467;SDS011;4772;52.382;9.752;2023-01-29T15:36:44;35.60;;;20.33;;
9467;SDS011;4772;52.382;9.752;2023-01-29T15:41:38;34.00;;;20.77;;
9467;SDS011;4772;52.382;9.752;2023-01-29T15:44:07;33.83;;;20.53;;
9467;SDS011;4772;52.382;9.752;2023-01-29T15:46:37;34.10;;;20.33;;
9467;SDS011;4772;52.382;9.752;2023-01-29T15:49:07;31.70;;;19.87;;
9467;SDS011;4772;52.382;9.752;2023-01-29T15:51:35;37.13;;;20.23;;
9467;SDS011;4772;52.382;9.752;2023-01-29T15:54:02;33.10;;;19.63;;
9467;SDS011;4772;52.382;9.752;2023-01-29T15:56:36;33.30;;;20.33;;
9467;SDS011;4772;52.382;9.752;2023-01-29T15:59:03;33.37;;;20.27;;
9467;SDS011;4772;52.382;9.752;2023-01-29T16:01:30;34.73;;;20.57;;
9467;SDS011;4772;52.382;9.752;2023-01-29T16:03:57;32.30;;;20.03;;
9467;SDS011;4772;52.382;9.752;2023-01-29T16:06:28;32.60;;;20.73;;
9467;SDS011;4772;52.382;9.752;2023-01-29T16:08:58;35.90;;;20.70;;
9467;SDS011;4772;52.382;9.752;2023-01-29T16:11:24;32.10;;;20.13;;
9467;SDS011;4772;52.382;9.752;2023-01-29T16:13:50;32.30;;;19.10;;
9467;SDS011;4772;52.382;9.752;2023-01-29T16:16:20;34.63;;;20.10;;
9467;SDS011;4772;52.382;9.752;2023-01-29T16:18:48;34.63;;;20.63;;
9467;SDS011;4772;52.382;9.752;2023-01-29T16:23:52;34.67;;;21.63;;
9467;SDS011;4772;52.382;9.752;2023-01-29T16:26:41;34.17;;;20.70;;
9467;SDS011;4772;52.382;9.752;2023-01-29T16:29:11;34.90;;;20.20;;
9467;SDS011;4772;52.382;9.752;2023-01-29T16:31:37;37.23;;;20.87;;
9467;SDS011;4772;52.382;9.752;2023-01-29T16:34:08;35.33;;;21.63;;
9467;SDS011;4772;52.382;9.752;2023-01-29T16:36:34;36.00;;;21.70;;
9467;SDS011;4772;52.382;9.752;2023-01-29T16:39:01;31.40;;;20.30;;
9467;SDS011;4772;52.382;9.752;2023-01-29T16:41:33;33.07;;;20.90;;
9467;SDS011;4772;52.382;9.752;2023-01-29T16:44:29;31.20;;;20.10;;
9467;SDS011;4772;52.382;9.752;2023-01-29T16:46:52;35.03;;;19.47;;
9467;SDS011;4772;52.382;9.752;2023-01-29T16:51:51;30.67;;;19.77;;
9467;SDS011;4772;52.382;9.752;2023-01-29T16:54:18;31.97;;;20.40;;
9467;SDS011;4772;52.382;9.752;2023-01-29T16:56:47;37.33;;;20.77;;
9467;SDS011;4772;52.382;9.752;2023-01-29T16:59:19;32.57;;;19.70;;
9467;SDS011;4772;52.382;9.752;2023-01-29T17:01:46;32.63;;;19.80;;
9467;SDS011;4772;52.382;9.752;2023-01-29T17:04:14;30.50;;;18.87;;
9467;SDS011;4772;52.382;9.752;2023-01-29T17:06:41;32.70;;;19.60;;
9467;SDS011;4772;52.382;9.752;2023-01-29T17:09:42;31.27;;;20.30;;
9467;SDS011;4772;52.382;9.752;2023-01-29T17:12:05;33.13;;;19.80;;
9467;SDS011;4772;52.382;9.752;2023-01-29T17:14:32;33.57;;;20.37;;
9467;SDS011;4772;52.382;9.752;2023-01-29T17:17:11;32.37;;;20.50;;
9467;SDS011;4772;52.382;9.752;2023-01-29T17:19:38;32.37;;;19.63;;
9467;SDS011;4772;52.382;9.752;2023-01-29T17:22:04;29.97;;;19.93;;
9467;SDS011;4772;52.382;9.752;2023-01-29T17:24:32;32.33;;;20.43;;
9467;SDS011;4772;52.382;9.752;2023-01-29T17:26:59;30.07;;;20.63;;
9467;SDS011;4772;52.382;9.752;2023-01-29T17:29:26;34.80;;;22.63;;